createdAt,value
2018-11-25T00:00:39.599Z,3.74
2018-11-25T00:01:39.567Z,3.69
2018-11-25T00:02:39.559Z,3.66
2018-11-25T00:03:39.546Z,3.76
2018-11-25T00:04:39.532Z,3.70
2018-11-25T00:05:39.550Z,3.70
2018-11-25T00:06:39.517Z,3.65
2018-11-25T00:07:39.519Z,3.73
2018-11-25T00:08:39.489Z,3.78
2018-11-25T00:09:39.478Z,3.81
2018-11-25T00:10:39.467Z,3.86
2018-11-25T00:11:39.481Z,3.83
2018-11-25T00:12:39.445Z,3.78
2018-11-25T00:13:39.441Z,3.86
2018-11-25T00:14:39.427Z,3.87
2018-11-25T00:15:39.417Z,3.77
2018-11-25T00:16:39.401Z,3.84
2018-11-25T00:17:39.441Z,3.83
2018-11-25T00:18:39.414Z,3.87
2018-11-25T00:19:39.372Z,3.84
2018-11-25T00:20:39.390Z,3.84
2018-11-25T00:21:39.346Z,3.92
2018-11-25T00:22:39.337Z,3.88
2018-11-25T00:23:39.326Z,3.80
2018-11-25T00:24:39.314Z,3.83
2018-11-25T00:25:39.310Z,3.86
2018-11-25T00:26:39.312Z,3.86
2018-11-25T00:27:39.285Z,3.92
2018-11-25T00:28:39.282Z,3.88
2018-11-25T00:29:39.258Z,3.87
2018-11-25T00:30:39.278Z,3.92
2018-11-25T00:31:39.264Z,3.84
2018-11-25T00:32:39.239Z,3.91
2018-11-25T00:33:39.215Z,3.91
2018-11-25T00:34:39.207Z,3.92
2018-11-25T00:35:39.235Z,3.87
2018-11-25T00:36:39.196Z,3.92
2018-11-25T00:37:39.181Z,3.91
2018-11-25T00:38:39.168Z,3.94
2018-11-25T00:39:39.159Z,3.92
2018-11-25T00:40:39.148Z,3.88
2018-11-25T00:41:39.151Z,3.88
2018-11-25T00:42:39.120Z,3.92
2018-11-25T00:43:39.111Z,3.86
2018-11-25T00:44:39.121Z,3.88
2018-11-25T00:45:39.110Z,3.88
2018-11-25T00:46:39.083Z,3.92
2018-11-25T00:47:39.071Z,3.94
2018-11-25T00:48:39.053Z,3.87
2018-11-25T00:49:39.050Z,3.91
2018-11-25T00:50:39.062Z,3.88
2018-11-25T00:51:39.034Z,3.83
2018-11-25T00:52:39.035Z,3.83
2018-11-25T00:53:38.999Z,3.87
2018-11-25T00:54:38.993Z,3.84
2018-11-25T00:55:38.985Z,3.81
2018-11-25T00:56:38.983Z,3.86
2018-11-25T00:57:38.986Z,3.88
2018-11-25T00:58:38.956Z,3.83
2018-11-25T00:59:38.947Z,3.74
2018-11-25T01:00:38.936Z,3.69
2018-11-25T01:01:38.913Z,3.80
2018-11-25T01:02:38.902Z,3.77
2018-11-25T01:03:38.914Z,3.77
2018-11-25T01:04:38.886Z,3.73
2018-11-25T01:05:38.874Z,3.77
2018-11-25T01:06:38.862Z,3.86
2018-11-25T01:07:38.849Z,3.80
2018-11-25T01:08:38.861Z,3.78
2018-11-25T01:09:38.833Z,3.68
2018-11-25T01:10:38.837Z,3.70
2018-11-25T01:11:38.809Z,3.74
2018-11-25T01:12:38.807Z,3.68
2018-11-25T01:13:38.785Z,3.68
2018-11-25T01:14:38.772Z,3.68
2018-11-25T01:15:38.780Z,3.70
2018-11-25T01:16:38.755Z,3.74
2018-11-25T01:17:38.751Z,3.65
2018-11-25T01:18:38.732Z,3.68
2018-11-25T01:19:38.719Z,3.68
2018-11-25T01:20:38.728Z,3.69
2018-11-25T01:21:38.702Z,3.68
2018-11-25T01:22:38.689Z,3.70
2018-11-25T01:23:38.679Z,3.73
2018-11-25T01:24:38.669Z,3.76
2018-11-25T01:25:38.650Z,3.74
2018-11-25T01:26:38.662Z,3.68
2018-11-25T01:27:38.630Z,3.70
2018-11-25T01:28:38.616Z,3.68
2018-11-25T01:29:38.662Z,3.62
2018-11-25T01:30:38.633Z,3.68
2018-11-25T01:31:38.589Z,3.60
2018-11-25T01:32:38.600Z,3.56
2018-11-25T01:33:38.563Z,3.50
2018-11-25T01:34:38.557Z,3.58
2018-11-25T01:35:38.563Z,3.59
2018-11-25T01:36:38.537Z,3.58
2018-11-25T01:37:38.536Z,3.60
2018-11-25T01:38:38.515Z,3.56
2018-11-25T01:39:38.501Z,3.58
2018-11-25T01:40:38.526Z,3.60
2018-11-25T01:41:38.488Z,3.58
2018-11-25T01:42:38.470Z,3.55
2018-11-25T01:43:38.495Z,3.53
2018-11-25T01:44:38.469Z,3.56
2018-11-25T01:45:38.455Z,3.59
2018-11-25T01:46:38.430Z,3.58
2018-11-25T01:47:38.412Z,3.53
2018-11-25T01:48:38.400Z,3.50
2018-11-25T01:49:38.395Z,3.48
2018-11-25T01:50:38.402Z,3.62
2018-11-25T01:51:46.708Z,3.55
2018-11-25T01:52:39.594Z,3.53
2018-11-25T01:53:39.534Z,3.50
2018-11-25T01:54:38.340Z,3.47
2018-11-25T01:55:38.328Z,3.50
2018-11-25T01:56:38.319Z,3.42
2018-11-25T01:57:38.301Z,3.48
2018-11-25T01:58:38.313Z,3.55
2018-11-25T01:59:38.290Z,3.56
2018-11-25T02:00:38.285Z,3.56
2018-11-25T02:01:38.283Z,3.47
2018-11-25T02:02:38.253Z,3.50
2018-11-25T02:03:38.239Z,3.50
2018-11-25T02:04:38.247Z,3.48
2018-11-25T02:05:38.213Z,3.53
2018-11-25T02:06:38.209Z,3.60
2018-11-25T02:07:38.197Z,3.47
2018-11-25T02:08:38.215Z,3.50
2018-11-25T02:09:38.174Z,3.55
2018-11-25T02:10:38.180Z,3.55
2018-11-25T02:11:38.154Z,3.50
2018-11-25T02:12:38.135Z,3.56
2018-11-25T02:13:38.131Z,3.48
2018-11-25T02:14:38.139Z,3.48
2018-11-25T02:15:38.125Z,3.48
2018-11-25T02:16:38.123Z,3.51
2018-11-25T02:17:38.082Z,3.48
2018-11-25T02:18:38.074Z,3.50
2018-11-25T02:19:38.068Z,3.48
2018-11-25T02:20:38.066Z,3.41
2018-11-25T02:21:38.045Z,3.40
2018-11-25T02:22:38.031Z,3.48
2018-11-25T02:23:38.018Z,3.48
2018-11-25T02:24:38.010Z,3.45
2018-11-25T02:25:38.020Z,3.50
2018-11-25T02:26:37.991Z,3.40
2018-11-25T02:27:38.000Z,3.45
2018-11-25T02:28:37.981Z,3.48
2018-11-25T02:29:37.950Z,3.41
2018-11-25T02:30:38.630Z,3.47
2018-11-25T02:31:37.931Z,3.44
2018-11-25T02:32:37.919Z,3.53
2018-11-25T02:33:37.931Z,3.37
2018-11-25T02:34:37.904Z,3.44
2018-11-25T02:35:37.909Z,3.41
2018-11-25T02:36:37.884Z,3.42
2018-11-25T02:37:37.863Z,3.41
2018-11-25T02:38:37.858Z,3.40
2018-11-25T02:39:37.851Z,3.40
2018-11-25T02:40:37.862Z,3.40
2018-11-25T02:41:37.820Z,3.36
2018-11-25T02:42:37.810Z,3.47
2018-11-25T02:43:37.800Z,3.37
2018-11-25T02:44:37.829Z,3.41
2018-11-25T02:45:37.782Z,3.41
2018-11-25T02:46:37.792Z,3.44
2018-11-25T02:47:37.762Z,3.42
2018-11-25T02:48:37.750Z,3.44
2018-11-25T02:49:37.737Z,3.48
2018-11-25T02:50:37.741Z,3.42
2018-11-25T02:51:37.739Z,3.44
2018-11-25T02:52:37.700Z,3.59
2018-11-25T02:53:37.695Z,3.42
2018-11-25T02:54:37.682Z,3.50
2018-11-25T02:55:37.669Z,3.45
2018-11-25T02:56:37.666Z,3.45
2018-11-25T02:57:37.689Z,3.42
2018-11-25T02:58:37.644Z,3.47
2018-11-25T02:59:37.627Z,3.45
2018-11-25T03:00:37.643Z,3.45
2018-11-25T03:01:37.606Z,3.41
2018-11-25T03:02:37.599Z,3.50
2018-11-25T03:03:37.581Z,3.32
2018-11-25T03:04:37.572Z,3.42
2018-11-25T03:05:38.855Z,3.45
2018-11-25T03:06:41.505Z,3.41
2018-11-25T03:07:37.540Z,3.44
2018-11-25T03:08:37.538Z,3.41
2018-11-25T03:09:37.516Z,3.50
2018-11-25T03:10:37.507Z,3.45
2018-11-25T03:11:37.499Z,3.47
2018-11-25T03:12:37.513Z,3.41
2018-11-25T03:13:37.490Z,3.48
2018-11-25T03:14:37.478Z,3.51
2018-11-25T03:15:37.450Z,3.44
2018-11-25T03:16:37.440Z,3.45
2018-11-25T03:17:37.437Z,3.42
2018-11-25T03:18:37.448Z,3.42
2018-11-25T03:19:37.408Z,3.45
2018-11-25T03:20:37.419Z,3.44
2018-11-25T03:21:37.382Z,3.44
2018-11-25T03:22:37.375Z,3.48
2018-11-25T03:23:37.366Z,3.41
2018-11-25T03:24:37.366Z,3.42
2018-11-25T03:25:37.364Z,3.44
2018-11-25T03:26:37.334Z,3.47
2018-11-25T03:27:37.319Z,3.44
2018-11-25T03:28:37.305Z,3.44
2018-11-25T03:29:37.303Z,3.48
2018-11-25T03:30:37.313Z,3.44
2018-11-25T03:31:37.277Z,3.42
2018-11-25T03:32:37.267Z,3.44
2018-11-25T03:33:37.252Z,3.45
2018-11-25T03:34:37.244Z,3.32
2018-11-25T03:35:37.253Z,3.36
2018-11-25T03:36:37.221Z,3.50
2018-11-25T03:37:37.216Z,3.42
2018-11-25T03:38:37.203Z,3.44
2018-11-25T03:39:37.193Z,3.32
2018-11-25T03:40:37.195Z,3.37
2018-11-25T03:41:37.165Z,3.41
2018-11-25T03:42:37.157Z,3.48
2018-11-25T03:43:37.149Z,3.48
2018-11-25T03:44:37.137Z,3.47
2018-11-25T03:45:37.195Z,3.45
2018-11-25T03:46:37.123Z,3.44
2018-11-25T03:47:37.104Z,3.42
2018-11-25T03:48:37.089Z,3.44
2018-11-25T03:49:37.105Z,3.41
2018-11-25T03:50:37.073Z,3.41
2018-11-25T03:51:37.072Z,3.42
2018-11-25T03:52:37.049Z,3.45
2018-11-25T03:53:37.034Z,3.44
2018-11-25T03:54:37.020Z,3.42
2018-11-25T03:55:37.027Z,3.45
2018-11-25T03:56:37.004Z,3.44
2018-11-25T03:57:36.993Z,3.48
2018-11-25T03:58:36.984Z,3.45
2018-11-25T03:59:36.972Z,3.47
2018-11-25T04:00:37.006Z,3.42
2018-11-25T04:01:36.949Z,3.47
2018-11-25T04:02:36.940Z,3.48
2018-11-25T04:03:36.933Z,3.37
2018-11-25T04:04:36.996Z,3.41
2018-11-25T04:05:36.904Z,3.42
2018-11-25T04:06:36.892Z,3.34
2018-11-25T04:07:36.883Z,3.36
2018-11-25T04:08:36.876Z,3.31
2018-11-25T04:09:36.861Z,3.34
2018-11-25T04:10:36.873Z,3.31
2018-11-25T04:11:36.847Z,3.44
2018-11-25T04:12:36.829Z,3.40
2018-11-25T04:13:36.837Z,3.36
2018-11-25T04:14:36.802Z,3.41
2018-11-25T04:15:36.799Z,3.37
2018-11-25T04:16:36.803Z,3.37
2018-11-25T04:17:36.792Z,3.36
2018-11-25T04:18:36.762Z,3.47
2018-11-25T04:19:36.752Z,3.44
2018-11-25T04:20:36.756Z,3.44
2018-11-25T04:21:36.766Z,3.36
2018-11-25T04:22:36.753Z,3.44
2018-11-25T04:23:36.712Z,3.40
2018-11-25T04:24:36.698Z,3.44
2018-11-25T04:25:36.690Z,3.34
2018-11-25T04:26:36.671Z,3.31
2018-11-25T04:27:36.660Z,3.31
2018-11-25T04:28:36.670Z,3.34
2018-11-25T04:29:36.643Z,3.40
2018-11-25T04:30:36.635Z,3.42
2018-11-25T04:31:36.641Z,3.51
2018-11-25T04:32:36.609Z,3.44
2018-11-25T04:33:36.606Z,3.29
2018-11-25T04:34:36.598Z,3.31
2018-11-25T04:35:36.580Z,3.40
2018-11-25T04:36:36.569Z,3.36
2018-11-25T04:37:36.577Z,3.34
2018-11-25T04:38:36.545Z,3.34
2018-11-25T04:39:36.530Z,3.36
2018-11-25T04:40:36.522Z,3.32
2018-11-25T04:41:36.515Z,3.45
2018-11-25T04:42:36.506Z,3.36
2018-11-25T04:43:36.512Z,3.45
2018-11-25T04:44:36.483Z,3.41
2018-11-25T04:45:36.471Z,3.45
2018-11-25T04:46:36.884Z,3.41
2018-11-25T04:47:36.448Z,3.45
2018-11-25T04:48:36.437Z,3.48
2018-11-25T04:49:36.443Z,3.40
2018-11-25T04:50:36.436Z,3.42
2018-11-25T04:51:36.558Z,3.48
2018-11-25T04:52:36.393Z,3.44
2018-11-25T04:53:36.386Z,3.48
2018-11-25T04:54:36.375Z,3.42
2018-11-25T04:55:36.371Z,3.42
2018-11-25T04:56:36.367Z,3.42
2018-11-25T04:57:36.344Z,3.51
2018-11-25T04:58:36.328Z,3.42
2018-11-25T04:59:36.312Z,3.44
2018-11-25T05:00:36.304Z,3.47
2018-11-25T05:01:36.323Z,3.47
2018-11-25T05:02:36.287Z,3.45
2018-11-25T05:03:36.270Z,3.53
2018-11-25T05:04:36.260Z,3.55
2018-11-25T05:05:36.251Z,3.42
2018-11-25T05:06:36.243Z,3.45
2018-11-25T05:07:36.263Z,3.47
2018-11-25T05:08:36.218Z,3.47
2018-11-25T05:09:36.211Z,3.48
2018-11-25T05:10:36.192Z,3.44
2018-11-25T05:11:36.181Z,3.45
2018-11-25T05:12:36.175Z,3.47
2018-11-25T05:13:36.180Z,3.51
2018-11-25T05:14:36.200Z,3.45
2018-11-25T05:15:36.172Z,3.41
2018-11-25T05:16:36.150Z,3.34
2018-11-25T05:17:36.117Z,3.36
2018-11-25T05:18:36.106Z,3.45
2018-11-25T05:19:36.103Z,3.48
2018-11-25T05:20:36.093Z,3.47
2018-11-25T05:21:36.100Z,3.47
2018-11-25T05:22:36.060Z,3.42
2018-11-25T05:23:36.053Z,3.47
2018-11-25T05:24:36.042Z,3.42
2018-11-25T05:25:36.033Z,3.51
2018-11-25T05:26:36.028Z,3.47
2018-11-25T05:27:36.041Z,3.42
2018-11-25T05:28:36.001Z,3.50
2018-11-25T05:29:35.986Z,3.50
2018-11-25T05:30:35.977Z,3.47
2018-11-25T05:31:35.971Z,3.45
2018-11-25T05:32:35.959Z,3.50
2018-11-25T05:33:35.968Z,3.44
2018-11-25T05:34:37.665Z,3.58
2018-11-25T05:35:36.324Z,3.47
2018-11-25T05:36:37.611Z,3.50
2018-11-25T05:37:46.303Z,3.44
2018-11-25T05:38:36.919Z,3.55
2018-11-25T05:39:35.886Z,3.44
2018-11-25T05:40:35.872Z,3.45
2018-11-25T05:41:35.875Z,3.45
2018-11-25T05:42:35.841Z,3.51
2018-11-25T05:43:35.837Z,3.47
2018-11-25T05:44:35.824Z,3.53
2018-11-25T05:45:35.817Z,3.45
2018-11-25T05:46:35.836Z,3.48
2018-11-25T05:47:35.794Z,3.48
2018-11-25T05:48:35.793Z,3.44
2018-11-25T05:49:36.820Z,3.48
2018-11-25T05:50:36.661Z,3.50
2018-11-25T05:51:35.871Z,3.48
2018-11-25T05:52:36.270Z,3.51
2018-11-25T05:53:36.099Z,3.47
2018-11-25T05:54:36.044Z,3.48
2018-11-25T05:55:43.355Z,3.47
2018-11-25T05:56:36.986Z,3.51
2018-11-25T05:57:41.268Z,3.56
2018-11-25T05:58:35.675Z,3.50
2018-11-25T05:59:35.666Z,3.47
2018-11-25T06:00:35.650Z,3.48
2018-11-25T06:01:35.659Z,3.47
2018-11-25T06:02:35.636Z,3.47
2018-11-25T06:03:35.629Z,3.55
2018-11-25T06:04:35.604Z,3.51
2018-11-25T06:05:35.596Z,3.50
2018-11-25T06:06:35.585Z,3.44
2018-11-25T06:07:35.570Z,3.45
2018-11-25T06:08:35.586Z,3.45
2018-11-25T06:09:35.551Z,3.40
2018-11-25T06:10:35.545Z,3.31
2018-11-25T06:11:35.532Z,3.34
2018-11-25T06:12:35.521Z,3.47
2018-11-25T06:13:35.505Z,3.42
2018-11-25T06:14:35.968Z,3.44
2018-11-25T06:15:36.374Z,3.34
2018-11-25T06:16:36.571Z,3.36
2018-11-25T06:17:35.676Z,3.31
2018-11-25T06:18:35.531Z,3.40
2018-11-25T06:19:35.813Z,3.36
2018-11-25T06:20:36.472Z,3.40
2018-11-25T06:21:36.218Z,3.45
2018-11-25T06:22:36.440Z,3.37
2018-11-25T06:23:35.553Z,3.44
2018-11-25T06:24:35.432Z,3.47
2018-11-25T06:25:35.451Z,3.32
2018-11-25T06:26:35.362Z,3.34
2018-11-25T06:27:38.321Z,3.31
2018-11-25T06:28:35.343Z,3.34
2018-11-25T06:29:35.334Z,3.45
2018-11-25T06:30:35.655Z,3.47
2018-11-25T06:31:35.340Z,3.41
2018-11-25T06:32:35.301Z,3.32
2018-11-25T06:33:36.066Z,3.42
2018-11-25T06:34:36.093Z,3.37
2018-11-25T06:35:36.129Z,3.48
2018-11-25T06:36:35.346Z,3.37
2018-11-25T06:37:35.304Z,3.41
2018-11-25T06:38:36.664Z,3.32
2018-11-25T06:39:35.695Z,3.45
2018-11-25T06:40:35.863Z,3.47
2018-11-25T06:41:36.515Z,3.47
2018-11-25T06:42:35.403Z,3.41
2018-11-25T06:43:35.544Z,3.41
2018-11-25T06:44:35.320Z,3.40
2018-11-25T06:45:35.752Z,3.34
2018-11-25T06:46:35.195Z,3.34
2018-11-25T06:47:36.176Z,3.42
2018-11-25T06:48:38.932Z,3.36
2018-11-25T06:49:35.337Z,3.42
2018-11-25T06:50:36.201Z,3.34
2018-11-25T06:51:35.129Z,3.41
2018-11-25T06:52:35.099Z,3.31
2018-11-25T06:53:42.160Z,3.45
2018-11-25T06:54:36.088Z,3.29
2018-11-25T06:55:37.103Z,3.50
2018-11-25T06:56:36.104Z,3.47
2018-11-25T06:57:37.325Z,3.34
2018-11-25T06:58:37.223Z,3.37
2018-11-25T06:59:37.529Z,3.37
2018-11-25T07:00:40.128Z,3.40
2018-11-25T07:01:35.063Z,3.48
2018-11-25T07:02:34.983Z,3.44
2018-11-25T07:03:34.990Z,3.40
2018-11-25T07:04:36.520Z,3.44
2018-11-25T07:05:34.990Z,3.36
2018-11-25T07:06:34.932Z,3.41
2018-11-25T07:07:34.997Z,3.42
2018-11-25T07:08:34.973Z,3.32
2018-11-25T07:09:34.910Z,3.36
2018-11-25T07:10:34.907Z,3.34
2018-11-25T07:11:34.872Z,3.34
2018-11-25T07:12:34.869Z,3.44
2018-11-25T07:13:34.883Z,3.41
2018-11-25T07:14:34.852Z,3.37
2018-11-25T07:15:34.835Z,3.34
2018-11-25T07:16:34.829Z,3.36
2018-11-25T07:17:34.812Z,3.47
2018-11-25T07:18:34.822Z,3.44
2018-11-25T07:19:34.899Z,3.48
2018-11-25T07:20:34.864Z,3.40
2018-11-25T07:21:34.892Z,3.34
2018-11-25T07:22:34.772Z,3.45
2018-11-25T07:23:34.766Z,3.40
2018-11-25T07:24:36.593Z,3.41
2018-11-25T07:25:34.967Z,3.37
2018-11-25T07:26:34.714Z,3.47
2018-11-25T07:27:34.761Z,3.58
2018-11-25T07:28:34.689Z,3.45
2018-11-25T07:29:34.856Z,3.50
2018-11-25T07:30:34.663Z,3.58
2018-11-25T07:31:34.653Z,3.58
2018-11-25T07:32:35.010Z,3.50
2018-11-25T07:33:36.213Z,3.51
2018-11-25T07:34:35.934Z,3.55
2018-11-25T07:35:34.635Z,3.55
2018-11-25T07:36:34.632Z,3.56
2018-11-25T07:37:34.593Z,3.56
2018-11-25T07:38:34.617Z,3.58
2018-11-25T07:39:34.565Z,3.53
2018-11-25T07:40:35.288Z,3.55
2018-11-25T07:41:34.553Z,3.58
2018-11-25T07:42:34.760Z,3.58
2018-11-25T07:43:34.547Z,3.58
2018-11-25T07:44:34.514Z,3.60
2018-11-25T07:45:34.515Z,3.45
2018-11-25T07:46:34.500Z,3.50
2018-11-25T07:47:34.487Z,3.59
2018-11-25T07:48:34.538Z,3.50
2018-11-25T07:49:34.478Z,3.55
2018-11-25T07:50:34.452Z,3.51
2018-11-25T07:51:34.451Z,3.55
2018-11-25T07:52:34.430Z,3.42
2018-11-25T07:53:34.440Z,3.34
2018-11-25T07:54:34.406Z,3.32
2018-11-25T07:55:34.412Z,3.28
2018-11-25T07:56:34.414Z,3.34
2018-11-25T07:57:34.370Z,3.36
2018-11-25T07:58:34.363Z,3.41
2018-11-25T07:59:34.356Z,3.41
2018-11-25T08:00:34.344Z,3.41
2018-11-25T08:01:34.349Z,3.44
2018-11-25T08:02:41.478Z,3.48
2018-11-25T08:03:35.307Z,3.48
2018-11-25T08:04:34.300Z,3.48
2018-11-25T08:05:34.516Z,3.53
2018-11-25T08:06:34.301Z,3.42
2018-11-25T08:07:34.266Z,3.45
2018-11-25T08:08:34.337Z,3.55
2018-11-25T08:09:34.240Z,3.51
2018-11-25T08:10:34.235Z,3.58
2018-11-25T08:11:34.222Z,3.60
2018-11-25T08:12:34.323Z,3.51
2018-11-25T08:13:34.203Z,3.55
2018-11-25T08:14:34.198Z,3.56
2018-11-25T08:15:34.175Z,3.55
2018-11-25T08:16:34.310Z,3.51
2018-11-25T08:17:34.215Z,3.63
2018-11-25T08:18:34.163Z,3.59
2018-11-25T08:19:34.146Z,3.66
2018-11-25T08:20:37.137Z,3.65
2018-11-25T08:21:34.275Z,3.68
2018-11-25T08:22:34.106Z,3.66
2018-11-25T08:23:34.089Z,3.68
2018-11-25T08:24:34.075Z,3.73
2018-11-25T08:25:34.071Z,3.69
2018-11-25T08:26:34.086Z,3.76
2018-11-25T08:27:34.047Z,3.77
2018-11-25T08:28:34.382Z,3.76
2018-11-25T08:29:34.079Z,3.80
2018-11-25T08:30:34.032Z,3.74
2018-11-25T08:31:34.026Z,3.80
2018-11-25T08:32:34.001Z,3.74
2018-11-25T08:33:33.977Z,3.76
2018-11-25T08:34:33.973Z,3.70
2018-11-25T08:35:33.979Z,3.68
2018-11-25T08:36:34.030Z,3.68
2018-11-25T08:37:33.955Z,3.70
2018-11-25T08:38:33.932Z,3.76
2018-11-25T08:39:33.946Z,3.73
2018-11-25T08:40:33.924Z,3.70
2018-11-25T08:41:33.914Z,3.69
2018-11-25T08:42:33.970Z,3.73
2018-11-25T08:43:33.960Z,3.73
2018-11-25T08:44:33.861Z,3.76
2018-11-25T08:45:34.121Z,3.69
2018-11-25T08:46:33.907Z,3.63
2018-11-25T08:47:33.834Z,3.73
2018-11-25T08:48:33.818Z,3.66
2018-11-25T08:49:33.817Z,3.66
2018-11-25T08:50:33.802Z,3.69
2018-11-25T08:51:33.822Z,3.70
2018-11-25T08:52:33.793Z,3.76
2018-11-25T08:53:34.174Z,3.65
2018-11-25T08:54:33.754Z,3.70
2018-11-25T08:55:33.763Z,3.74
2018-11-25T08:56:33.754Z,3.76
2018-11-25T08:57:33.736Z,3.80
2018-11-25T08:58:33.713Z,3.83
2018-11-25T08:59:33.758Z,3.84
2018-11-25T09:00:34.761Z,3.87
2018-11-25T09:01:35.395Z,3.96
2018-11-25T09:02:33.951Z,3.95
2018-11-25T09:03:33.691Z,4.02
2018-11-25T09:04:33.688Z,3.99
2018-11-25T09:05:34.870Z,3.95
2018-11-25T09:06:33.809Z,4.01
2018-11-25T09:07:33.617Z,3.98
2018-11-25T09:08:33.605Z,3.94
2018-11-25T09:09:33.597Z,4.05
2018-11-25T09:10:33.598Z,4.08
2018-11-25T09:11:33.605Z,3.96
2018-11-25T09:12:33.612Z,3.95
2018-11-25T09:13:33.550Z,3.99
2018-11-25T09:14:33.629Z,3.94
2018-11-25T09:15:33.528Z,3.91
2018-11-25T09:16:33.517Z,3.83
2018-11-25T09:17:33.606Z,3.87
2018-11-25T09:18:33.500Z,3.81
2018-11-25T09:19:33.498Z,3.94
2018-11-25T09:20:33.475Z,3.92
2018-11-25T09:21:33.469Z,3.87
2018-11-25T09:22:33.456Z,4.01
2018-11-25T09:23:33.465Z,4.01
2018-11-25T09:24:33.441Z,3.99
2018-11-25T09:25:33.444Z,3.99
2018-11-25T09:26:33.456Z,3.95
2018-11-25T09:27:33.401Z,4.06
2018-11-25T09:28:33.439Z,4.05
2018-11-25T09:29:33.437Z,3.96
2018-11-25T09:30:33.369Z,3.98
2018-11-25T09:31:33.385Z,3.99
2018-11-25T09:32:33.349Z,3.96
2018-11-25T09:33:33.335Z,4.01
2018-11-25T09:34:33.324Z,4.12
2018-11-25T09:35:33.361Z,4.04
2018-11-25T09:36:33.306Z,4.04
2018-11-25T09:37:33.313Z,4.05
2018-11-25T09:38:33.283Z,4.12
2018-11-25T09:39:33.270Z,4.08
2018-11-25T09:40:33.346Z,4.16
2018-11-25T09:41:33.263Z,4.08
2018-11-25T09:42:33.282Z,4.10
2018-11-25T09:43:33.255Z,4.08
2018-11-25T09:44:33.221Z,4.05
2018-11-25T09:45:33.202Z,4.05
2018-11-25T09:46:33.222Z,4.08
2018-11-25T09:47:33.187Z,3.99
2018-11-25T09:48:33.177Z,3.99
2018-11-25T09:49:33.212Z,4.01
2018-11-25T09:50:33.216Z,4.02
2018-11-25T09:51:33.166Z,3.98
2018-11-25T09:52:33.135Z,3.94
2018-11-25T09:53:33.126Z,3.94
2018-11-25T09:54:33.113Z,3.91
2018-11-25T09:55:33.843Z,3.88
2018-11-25T09:56:33.095Z,3.95
2018-11-25T09:57:33.104Z,3.87
2018-11-25T09:58:33.068Z,3.83
2018-11-25T09:59:33.178Z,3.83
2018-11-25T10:00:33.052Z,3.84
2018-11-25T10:01:33.061Z,3.81
2018-11-25T10:02:33.036Z,3.84
2018-11-25T10:03:33.021Z,3.88
2018-11-25T10:04:33.006Z,3.88
2018-11-25T10:05:32.996Z,3.86
2018-11-25T10:06:32.979Z,3.99
2018-11-25T10:07:33.008Z,3.88
2018-11-25T10:08:32.966Z,3.88
2018-11-25T10:09:33.118Z,4.01
2018-11-25T10:10:32.942Z,3.99
2018-11-25T10:11:32.944Z,3.98
2018-11-25T10:12:32.922Z,3.99
2018-11-25T10:13:34.877Z,3.94
2018-11-25T10:14:33.269Z,4.08
2018-11-25T10:15:34.163Z,4.12
2018-11-25T10:16:34.926Z,4.14
2018-11-25T10:17:33.745Z,4.08
2018-11-25T10:18:33.914Z,4.05
2018-11-25T10:19:32.962Z,4.05
2018-11-25T10:20:32.855Z,4.10
2018-11-25T10:21:33.021Z,4.02
2018-11-25T10:22:32.810Z,4.01
2018-11-25T10:23:32.801Z,4.01
2018-11-25T10:24:34.331Z,3.95
2018-11-25T10:25:32.795Z,3.98
2018-11-25T10:26:32.774Z,3.99
2018-11-25T10:27:32.846Z,4.02
2018-11-25T10:28:32.831Z,3.99
2018-11-25T10:29:32.758Z,4.02
2018-11-25T10:30:32.724Z,3.94
2018-11-25T10:31:32.729Z,3.95
2018-11-25T10:32:32.820Z,3.95
2018-11-25T10:33:32.723Z,4.05
2018-11-25T10:34:32.714Z,4.06
2018-11-25T10:35:32.691Z,4.05
2018-11-25T10:36:32.669Z,4.08
2018-11-25T10:37:33.601Z,4.13
2018-11-25T10:38:37.077Z,4.08
2018-11-25T10:39:32.694Z,4.16
2018-11-25T10:40:32.928Z,4.13
2018-11-25T10:41:32.639Z,4.04
2018-11-25T10:42:32.638Z,4.14
2018-11-25T10:43:32.879Z,4.16
2018-11-25T10:44:32.654Z,4.22
2018-11-25T10:45:32.591Z,4.16
2018-11-25T10:46:32.700Z,4.20
2018-11-25T10:47:32.646Z,4.23
2018-11-25T10:48:32.673Z,4.23
2018-11-25T10:49:32.568Z,4.26
2018-11-25T10:50:32.525Z,4.16
2018-11-25T10:51:32.553Z,4.05
2018-11-25T10:52:32.502Z,4.20
2018-11-25T10:53:32.518Z,4.24
2018-11-25T10:54:32.466Z,4.08
2018-11-25T10:55:32.710Z,4.17
2018-11-25T10:56:32.493Z,4.14
2018-11-25T10:57:32.447Z,4.10
2018-11-25T10:58:32.440Z,4.10
2018-11-25T10:59:32.954Z,4.17
2018-11-25T11:00:32.496Z,4.10
2018-11-25T11:01:32.621Z,4.12
2018-11-25T11:02:32.416Z,4.13
2018-11-25T11:03:33.374Z,4.02
2018-11-25T11:04:32.417Z,4.13
2018-11-25T11:05:32.889Z,4.04
2018-11-25T11:06:32.389Z,4.14
2018-11-25T11:07:32.336Z,4.16
2018-11-25T11:08:32.319Z,4.14
2018-11-25T11:09:32.311Z,4.19
2018-11-25T11:10:32.325Z,4.16
2018-11-25T11:11:32.355Z,4.22
2018-11-25T11:12:32.331Z,4.20
2018-11-25T11:13:32.335Z,4.17
2018-11-25T11:14:32.301Z,4.23
2018-11-25T11:15:32.336Z,4.20
2018-11-25T11:16:32.602Z,4.23
2018-11-25T11:17:32.329Z,4.14
2018-11-25T11:18:32.372Z,4.08
2018-11-25T11:19:32.278Z,4.12
2018-11-25T11:20:32.270Z,4.10
2018-11-25T11:21:32.266Z,4.24
2018-11-25T11:22:33.084Z,4.22
2018-11-25T11:23:32.185Z,4.08
2018-11-25T11:24:32.211Z,4.04
2018-11-25T11:25:32.180Z,4.08
2018-11-25T11:26:32.176Z,4.04
2018-11-25T11:27:32.130Z,4.08
2018-11-25T11:28:32.134Z,4.12
2018-11-25T11:29:32.105Z,4.13
2018-11-25T11:30:32.114Z,4.08
2018-11-25T11:31:32.141Z,3.95
2018-11-25T11:32:32.067Z,4.08
2018-11-25T11:33:32.108Z,4.02
2018-11-25T11:34:32.055Z,3.95
2018-11-25T11:35:32.046Z,4.08
2018-11-25T11:36:32.018Z,3.99
2018-11-25T11:37:32.018Z,3.98
2018-11-25T11:38:32.020Z,3.98
2018-11-25T11:39:32.041Z,3.98
2018-11-25T11:40:32.004Z,3.98
2018-11-25T11:41:31.958Z,3.95
2018-11-25T11:42:31.973Z,3.94
2018-11-25T11:43:31.938Z,3.91
2018-11-25T11:44:31.953Z,3.98
2018-11-25T11:45:31.963Z,3.96
2018-11-25T11:46:32.042Z,3.96
2018-11-25T11:47:31.979Z,3.88
2018-11-25T11:48:31.917Z,3.95
2018-11-25T11:49:31.929Z,3.96
2018-11-25T11:50:31.870Z,3.94
2018-11-25T11:51:31.887Z,3.92
2018-11-25T11:52:31.957Z,3.94
2018-11-25T11:53:31.901Z,4.01
2018-11-25T11:54:31.840Z,3.99
2018-11-25T11:55:31.844Z,3.98
2018-11-25T11:56:31.829Z,4.01
2018-11-25T11:57:31.886Z,3.91
2018-11-25T11:58:31.806Z,3.99
2018-11-25T11:59:31.787Z,4.01
2018-11-25T12:00:31.774Z,3.96
2018-11-25T12:01:31.785Z,3.94
2018-11-25T12:02:31.818Z,3.96
2018-11-25T12:03:31.868Z,4.04
2018-11-25T12:04:31.824Z,3.98
2018-11-25T12:05:31.782Z,3.99
2018-11-25T12:06:31.794Z,3.95
2018-11-25T12:07:31.710Z,3.91
2018-11-25T12:08:31.707Z,3.94
2018-11-25T12:09:31.659Z,3.91
2018-11-25T12:10:31.733Z,3.91
2018-11-25T12:11:31.647Z,3.91
2018-11-25T12:12:31.737Z,3.91
2018-11-25T12:13:31.624Z,3.91
2018-11-25T12:14:31.606Z,3.95
2018-11-25T12:15:31.664Z,3.91
2018-11-25T12:16:31.596Z,3.95
2018-11-25T12:17:31.726Z,3.77
2018-11-25T12:18:31.593Z,3.80
2018-11-25T12:19:31.574Z,3.87
2018-11-25T12:20:31.601Z,3.86
2018-11-25T12:21:31.567Z,3.83
2018-11-25T12:22:31.571Z,3.86
2018-11-25T12:23:31.556Z,3.84
2018-11-25T12:24:31.509Z,3.91
2018-11-25T12:25:31.495Z,3.91
2018-11-25T12:26:31.524Z,3.84
2018-11-25T12:27:31.477Z,3.88
2018-11-25T12:28:31.522Z,3.81
2018-11-25T12:29:31.597Z,3.87
2018-11-25T12:30:31.856Z,3.81
2018-11-25T12:31:31.449Z,3.84
2018-11-25T12:32:31.426Z,3.86
2018-11-25T12:33:31.392Z,3.88
2018-11-25T12:34:31.389Z,3.81
2018-11-25T12:35:31.416Z,3.83
2018-11-25T12:36:31.368Z,3.88
2018-11-25T12:37:35.950Z,3.78
2018-11-25T12:38:32.341Z,3.88
2018-11-25T12:39:31.342Z,3.83
2018-11-25T12:40:31.339Z,3.84
2018-11-25T12:41:31.613Z,3.81
2018-11-25T12:42:31.392Z,3.88
2018-11-25T12:43:31.345Z,3.87
2018-11-25T12:44:31.319Z,3.86
2018-11-25T12:45:31.350Z,3.86
2018-11-25T12:46:31.963Z,3.92
2018-11-25T12:47:31.358Z,3.86
2018-11-25T12:48:31.363Z,3.83
2018-11-25T12:49:31.265Z,3.84
2018-11-25T12:50:31.371Z,3.80
2018-11-25T12:51:31.205Z,3.78
2018-11-25T12:52:31.197Z,3.80
2018-11-25T12:53:31.180Z,3.74
2018-11-25T12:54:31.206Z,3.78
2018-11-25T12:55:31.416Z,3.73
2018-11-25T12:56:31.193Z,3.74
2018-11-25T12:57:31.198Z,3.70
2018-11-25T12:58:31.871Z,3.76
2018-11-25T12:59:31.224Z,3.74
2018-11-25T13:00:31.116Z,3.76
2018-11-25T13:01:31.423Z,3.78
2018-11-25T13:02:31.119Z,3.78
2018-11-25T13:03:31.102Z,3.80
2018-11-25T13:04:31.066Z,3.83
2018-11-25T13:05:31.042Z,3.74
2018-11-25T13:06:31.130Z,3.69
2018-11-25T13:07:31.170Z,3.68
2018-11-25T13:08:31.107Z,3.83
2018-11-25T13:09:31.052Z,3.80
2018-11-25T13:10:32.001Z,3.74
2018-11-25T13:11:31.068Z,3.78
2018-11-25T13:12:31.031Z,3.80
2018-11-25T13:13:30.994Z,3.78
2018-11-25T13:14:30.992Z,3.70
2018-11-25T13:15:30.967Z,3.77
2018-11-25T13:16:31.014Z,3.70
2018-11-25T13:17:30.948Z,3.78
2018-11-25T13:18:30.942Z,3.83